Time;durP1;ratioP1;P1;durP2;ratioP2;P2;SDS_P1;SDS_P2;PMS_P1;PMS_P2;Temp;Humidity;BMP_temperature;BMP_pressure;BME280_temperature;BME280_humidity;BME280_pressure;Samples;Min_cycle;Max_cycle;Signal;HPM_P1;HPM_P2
2021/12/10 00:00:16;;;;;;;45.70;30.23;;;5.40;99.90;;;;;;5005368;28;20370;-84
2021/12/10 00:02:46;;;;;;;44.83;28.02;;;5.40;99.90;;;;;;5024561;28;20072;-84
2021/12/10 00:05:16;;;;;;;50.95;28.95;;;5.40;99.90;;;;;;5006718;28;20867;-84
2021/12/10 00:07:43;;;;;;;46.83;29.42;;;5.40;99.90;;;;;;5011373;28;20419;-83
2021/12/10 00:10:14;;;;;;;47.13;29.17;;;5.40;99.90;;;;;;5002787;28;20425;-83
2021/12/10 00:12:49;;;;;;;43.78;26.77;;;5.40;99.90;;;;;;5002839;28;20500;-85
2021/12/10 00:15:18;;;;;;;44.65;26.48;;;5.40;99.90;;;;;;4985371;28;20350;-84
2021/12/10 00:17:44;;;;;;;45.65;26.23;;;5.40;99.90;;;;;;5008457;28;20044;-84
2021/12/10 00:20:11;;;;;;;42.13;26.48;;;5.40;99.90;;;;;;4988138;28;20295;-84
2021/12/10 00:22:49;;;;;;;38.70;24.83;;;5.40;99.90;;;;;;5004014;28;20684;-83
2021/12/10 00:25:19;;;;;;;37.10;24.77;;;5.40;99.90;;;;;;4994258;28;20047;-84
2021/12/10 00:27:47;;;;;;;42.13;25.00;;;5.40;99.90;;;;;;5008201;28;20972;-84
2021/12/10 00:30:30;;;;;;;36.10;24.23;;;5.40;99.90;;;;;;5008443;28;20083;-83
2021/12/10 00:33:14;;;;;;;36.70;22.45;;;5.30;99.90;;;;;;5007704;28;20047;-84
2021/12/10 00:35:42;;;;;;;35.88;24.13;;;5.30;99.90;;;;;;4997976;28;20321;-84
2021/12/10 00:38:09;;;;;;;36.42;24.40;;;5.40;99.90;;;;;;5007827;28;20055;-84
2021/12/10 00:40:36;;;;;;;34.45;22.92;;;5.30;99.90;;;;;;5008378;28;20051;-84
2021/12/10 00:43:03;;;;;;;35.30;22.33;;;5.30;99.90;;;;;;5004510;28;20039;-83
2021/12/10 00:45:29;;;;;;;33.45;22.13;;;5.30;99.90;;;;;;4989010;28;20524;-84
2021/12/10 00:47:55;;;;;;;32.80;21.92;;;5.40;99.90;;;;;;5013528;28;20040;-84
2021/12/10 00:50:25;;;;;;;35.20;23.08;;;5.40;99.90;;;;;;5011552;28;20060;-83
2021/12/10 00:52:53;;;;;;;35.70;22.85;;;5.30;99.90;;;;;;5004935;28;20914;-84
2021/12/10 00:55:20;;;;;;;32.92;21.92;;;5.30;99.90;;;;;;5002562;28;20047;-84
2021/12/10 00:57:46;;;;;;;35.45;21.95;;;5.30;99.90;;;;;;5012551;28;20040;-83
2021/12/10 01:00:42;;;;;;;36.03;21.95;;;5.40;99.90;;;;;;4982565;28;20139;-84
2021/12/10 01:03:11;;;;;;;32.33;21.08;;;5.40;99.90;;;;;;5003146;28;20243;-84
2021/12/10 01:05:38;;;;;;;34.50;20.65;;;5.30;99.90;;;;;;5003272;28;20439;-83
2021/12/10 01:08:05;;;;;;;32.53;20.65;;;5.30;99.90;;;;;;5002527;28;20087;-83
2021/12/10 01:10:40;;;;;;;28.90;19.73;;;5.30;99.90;;;;;;4985164;28;20048;-85
2021/12/10 01:13:11;;;;;;;29.58;19.55;;;5.30;99.90;;;;;;5005547;28;20559;-84
2021/12/10 01:16:07;;;;;;;33.55;19.80;;;5.30;99.90;;;;;;4996720;28;20506;-84
2021/12/10 01:26:58;;;;;;;33.72;18.65;;;5.20;99.90;;;;;;5004558;28;21166;-85
2021/12/10 01:29:38;;;;;;;34.40;18.27;;;5.20;99.90;;;;;;4988351;28;20576;-84
2021/12/10 01:32:07;;;;;;;27.27;17.75;;;5.20;99.90;;;;;;5005960;28;20116;-85
2021/12/10 01:34:33;;;;;;;29.77;18.92;;;5.20;99.90;;;;;;5007642;28;21017;-84
2021/12/10 01:37:02;;;;;;;30.73;17.73;;;5.20;99.90;;;;;;4992105;28;20150;-84
2021/12/10 01:39:31;;;;;;;29.33;16.88;;;5.20;99.90;;;;;;5007954;28;20989;-85
2021/12/10 01:42:12;;;;;;;30.30;17.65;;;5.10;99.90;;;;;;5010997;28;20062;-84
2021/12/10 01:44:42;;;;;;;34.70;17.70;;;5.10;99.90;;;;;;5006638;28;20058;-84
2021/12/10 01:47:10;;;;;;;32.10;17.33;;;5.10;99.90;;;;;;5006113;28;20050;-84
2021/12/10 01:49:37;;;;;;;27.08;16.58;;;5.10;99.90;;;;;;4992198;28;20132;-84
2021/12/10 01:52:04;;;;;;;27.58;16.65;;;5.20;99.90;;;;;;5008375;28;20789;-84
2021/12/10 01:54:39;;;;;;;29.40;17.20;;;5.10;99.90;;;;;;5005217;28;20086;-84
2021/12/10 01:57:07;;;;;;;29.20;17.58;;;5.20;99.90;;;;;;5022687;28;20750;-84
2021/12/10 01:59:36;;;;;;;30.42;16.63;;;5.20;99.90;;;;;;5020074;28;20892;-84
2021/12/10 02:02:08;;;;;;;26.63;16.55;;;5.10;99.90;;;;;;4990335;28;20047;-84
2021/12/10 02:04:37;;;;;;;33.08;16.55;;;5.20;99.90;;;;;;5002984;28;20051;-84
2021/12/10 02:07:05;;;;;;;32.83;16.90;;;5.20;99.90;;;;;;5003663;28;20043;-84
2021/12/10 02:09:31;;;;;;;29.33;16.70;;;5.20;99.90;;;;;;5005881;28;20058;-84
2021/12/10 02:11:57;;;;;;;33.92;16.67;;;5.10;99.90;;;;;;4985461;28;20570;-84
2021/12/10 02:14:24;;;;;;;36.60;16.90;;;5.00;99.90;;;;;;5004543;28;20895;-84
2021/12/10 02:16:51;;;;;;;33.00;16.60;;;5.00;99.90;;;;;;5005010;28;20460;-84
2021/12/10 02:19:18;;;;;;;31.83;18.05;;;5.00;99.90;;;;;;5000299;28;20134;-85
2021/12/10 02:21:45;;;;;;;27.20;16.42;;;4.90;99.90;;;;;;5005475;28;20440;-84
2021/12/10 02:24:12;;;;;;;28.25;16.80;;;4.80;99.90;;;;;;5001563;28;20040;-84
2021/12/10 02:27:00;;;;;;;30.50;17.33;;;4.90;99.90;;;;;;5002416;28;20051;-83
2021/12/10 02:29:30;;;;;;;32.03;18.40;;;4.80;99.90;;;;;;4998109;28;20055;-83
2021/12/10 02:31:56;;;;;;;30.80;18.77;;;5.00;99.90;;;;;;5000944;28;20716;-83
2021/12/10 02:34:24;;;;;;;36.83;20.20;;;5.00;99.90;;;;;;5004889;28;20068;-84
2021/12/10 02:36:51;;;;;;;33.10;19.95;;;5.00;99.90;;;;;;5005383;28;20056;-84
2021/12/10 02:39:21;;;;;;;32.85;21.15;;;5.10;99.90;;;;;;5004365;28;20060;-84
2021/12/10 02:41:48;;;;;;;33.78;21.23;;;5.10;99.90;;;;;;5003537;28;20097;-84
2021/12/10 02:44:19;;;;;;;38.95;21.75;;;5.00;99.90;;;;;;5006341;28;20867;-84
2021/12/10 02:46:45;;;;;;;38.75;21.92;;;5.00;99.90;;;;;;4998676;28;20568;-83
2021/12/10 02:49:12;;;;;;;34.58;21.98;;;5.00;99.90;;;;;;5007226;28;20100;-83
2021/12/10 02:51:39;;;;;;;36.60;22.30;;;5.00;99.90;;;;;;5003280;28;20624;-84
2021/12/10 02:54:07;;;;;;;37.30;23.00;;;4.90;99.90;;;;;;5005712;28;20127;-84
2021/12/10 02:56:33;;;;;;;34.33;22.98;;;4.80;99.90;;;;;;5003722;28;20837;-83
2021/12/10 02:59:01;;;;;;;35.03;23.45;;;4.70;99.90;;;;;;5007638;28;20043;-83
2021/12/10 03:01:42;;;;;;;33.78;22.83;;;4.70;99.90;;;;;;4980121;28;20533;-83
2021/12/10 03:04:10;;;;;;;33.58;21.65;;;4.60;99.90;;;;;;5025013;28;20115;-83
2021/12/10 03:06:50;;;;;;;33.47;22.67;;;4.50;99.90;;;;;;4999570;28;20244;-84
2021/12/10 03:09:19;;;;;;;33.08;22.00;;;4.40;99.90;;;;;;5004524;28;20062;-84
2021/12/10 03:11:49;;;;;;;34.03;22.05;;;4.30;99.90;;;;;;5001998;28;20257;-84
2021/12/10 03:14:23;;;;;;;35.80;22.88;;;4.50;99.90;;;;;;5002803;28;20058;-84
2021/12/10 03:16:51;;;;;;;36.72;24.48;;;4.40;99.90;;;;;;5001731;28;20055;-83
2021/12/10 03:19:17;;;;;;;36.97;23.88;;;4.50;99.90;;;;;;5001101;28;20043;-84
2021/12/10 03:21:44;;;;;;;32.90;22.05;;;4.50;99.90;;;;;;5002142;28;20438;-84
2021/12/10 03:24:19;;;;;;;36.47;22.38;;;4.50;99.90;;;;;;4981572;28;20497;-83
2021/12/10 03:26:45;;;;;;;31.80;21.90;;;4.60;99.90;;;;;;5005028;28;20385;-84
2021/12/10 03:29:12;;;;;;;32.55;22.23;;;4.50;99.90;;;;;;4980844;28;20093;-83
2021/12/10 03:31:39;;;;;;;29.92;22.13;;;4.60;99.90;;;;;;5003584;28;20039;-83
2021/12/10 03:34:05;;;;;;;30.30;21.83;;;4.60;99.90;;;;;;5006585;28;20048;-84
2021/12/10 03:36:31;;;;;;;34.40;21.27;;;4.60;99.90;;;;;;5002760;28;20047;-83
2021/12/10 03:38:57;;;;;;;30.67;21.88;;;4.60;99.90;;;;;;5002732;28;20044;-84
2021/12/10 03:41:24;;;;;;;31.15;21.02;;;4.60;99.90;;;;;;5002359;28;20124;-84
2021/12/10 03:43:53;;;;;;;29.48;21.25;;;4.50;99.90;;;;;;5005315;28;20553;-84
2021/12/10 03:46:19;;;;;;;29.95;20.70;;;4.50;99.90;;;;;;4977122;28;20062;-84
2021/12/10 03:48:46;;;;;;;29.58;20.35;;;4.40;99.90;;;;;;4999745;28;20708;-83
2021/12/10 03:51:19;;;;;;;29.05;19.80;;;4.30;99.90;;;;;;4978405;28;20184;-84
2021/12/10 03:53:46;;;;;;;27.63;19.73;;;4.30;99.90;;;;;;5001333;28;20127;-83
2021/12/10 03:56:16;;;;;;;27.80;19.92;;;4.20;99.90;;;;;;5000165;28;20058;-84
2021/12/10 03:58:43;;;;;;;28.48;20.08;;;4.10;99.90;;;;;;5000344;28;20385;-83
2021/12/10 04:01:11;;;;;;;28.38;19.67;;;4.10;99.90;;;;;;5000908;28;20044;-84
2021/12/10 04:03:38;;;;;;;26.98;19.17;;;4.00;99.90;;;;;;5005430;28;20396;-84
2021/12/10 04:06:05;;;;;;;25.98;19.08;;;3.90;99.90;;;;;;4996884;28;20131;-83
2021/12/10 04:08:31;;;;;;;28.27;19.63;;;3.90;99.90;;;;;;5003349;28;20959;-83
2021/12/10 04:10:58;;;;;;;27.75;19.83;;;3.90;99.90;;;;;;5000390;28;20582;-83
2021/12/10 04:13:24;;;;;;;31.95;21.00;;;3.90;99.90;;;;;;5000367;28;20062;-84
2021/12/10 04:15:50;;;;;;;28.95;20.98;;;3.70;99.90;;;;;;5006366;28;20474;-83
2021/12/10 04:18:17;;;;;;;30.50;21.13;;;3.80;99.90;;;;;;5002220;28;20770;-83
2021/12/10 04:20:46;;;;;;;28.88;21.45;;;3.80;99.90;;;;;;4998485;28;20055;-82
2021/12/10 04:23:15;;;;;;;30.00;21.85;;;3.80;99.90;;;;;;5005600;28;20575;-84
2021/12/10 04:25:42;;;;;;;33.00;22.35;;;3.80;99.90;;;;;;5004203;28;20052;-83
2021/12/10 04:28:12;;;;;;;33.03;23.23;;;3.80;99.90;;;;;;5022223;28;20039;-83
2021/12/10 04:30:41;;;;;;;31.02;22.13;;;3.80;99.90;;;;;;5012168;28;20116;-83
2021/12/10 04:33:08;;;;;;;29.33;21.95;;;3.70;99.90;;;;;;5004158;28;20077;-82
2021/12/10 04:35:34;;;;;;;29.88;21.92;;;3.70;99.90;;;;;;5003423;28;20043;-84
2021/12/10 04:38:00;;;;;;;28.95;20.75;;;3.60;99.90;;;;;;4987644;28;20423;-84
2021/12/10 04:40:26;;;;;;;28.08;20.90;;;3.60;99.90;;;;;;4991645;28;20554;-84
2021/12/10 04:42:52;;;;;;;27.02;20.42;;;3.40;99.90;;;;;;5003281;28;20750;-83
2021/12/10 04:45:19;;;;;;;28.48;21.00;;;3.50;99.90;;;;;;5007304;28;20036;-83
2021/12/10 04:47:47;;;;;;;29.98;21.45;;;3.40;99.90;;;;;;5008140;28;20055;-83
2021/12/10 04:50:16;;;;;;;29.48;21.00;;;3.30;99.90;;;;;;5013104;28;20173;-84
2021/12/10 04:52:42;;;;;;;25.67;19.88;;;3.40;99.90;;;;;;5004878;28;20070;-83
2021/12/10 04:55:11;;;;;;;26.38;19.02;;;3.20;99.90;;;;;;4983167;28;20099;-83
2021/12/10 04:57:38;;;;;;;25.05;18.67;;;3.20;99.90;;;;;;5003461;28;20050;-83
2021/12/10 05:00:08;;;;;;;26.13;19.73;;;3.20;99.90;;;;;;5005791;28;20052;-84
2021/12/10 05:02:35;;;;;;;27.90;18.00;;;3.10;99.90;;;;;;5005153;28;20371;-84
2021/12/10 05:05:01;;;;;;;25.33;17.83;;;3.10;99.90;;;;;;5003516;28;20058;-83
2021/12/10 05:07:30;;;;;;;26.15;18.55;;;3.10;99.90;;;;;;4993906;28;20044;-83
2021/12/10 05:09:57;;;;;;;25.73;18.35;;;3.00;99.90;;;;;;4999692;28;20877;-83
2021/12/10 05:12:23;;;;;;;25.50;18.10;;;3.00;99.90;;;;;;5025922;28;20565;-83
2021/12/10 05:14:49;;;;;;;27.45;18.23;;;3.00;99.90;;;;;;5008141;28;20399;-83
2021/12/10 05:17:15;;;;;;;25.20;18.50;;;3.00;99.90;;;;;;5006375;28;20043;-83
2021/12/10 05:19:42;;;;;;;28.23;19.13;;;2.80;99.90;;;;;;5002000;28;20517;-83
2021/12/10 05:22:12;;;;;;;24.98;18.27;;;2.90;99.90;;;;;;4980878;28;20043;-83
2021/12/10 05:24:40;;;;;;;25.13;18.48;;;2.80;99.90;;;;;;4977591;28;20207;-83
2021/12/10 05:27:06;;;;;;;25.75;18.00;;;2.70;99.90;;;;;;4978936;28;20108;-84
2021/12/10 05:29:32;;;;;;;25.95;17.73;;;2.70;99.90;;;;;;5004138;28;20052;-83
2021/12/10 05:31:59;;;;;;;25.70;18.25;;;2.80;99.90;;;;;;4980442;28;20749;-83
2021/12/10 05:34:25;;;;;;;26.20;18.35;;;2.70;99.90;;;;;;4980171;28;20357;-83
2021/12/10 05:36:52;;;;;;;26.30;18.00;;;2.70;99.90;;;;;;5006738;28;20048;-83
2021/12/10 05:39:22;;;;;;;27.00;18.23;;;2.80;99.90;;;;;;5002687;28;20558;-83
2021/12/10 05:41:47;;;;;;;25.83;18.20;;;2.70;99.90;;;;;;5004734;28;20109;-84
2021/12/10 05:44:13;;;;;;;24.35;17.33;;;2.70;99.90;;;;;;4999398;28;20050;-83
2021/12/10 05:46:39;;;;;;;25.38;17.27;;;2.60;99.90;;;;;;4994336;28;20066;-84
2021/12/10 05:49:06;;;;;;;24.75;16.83;;;2.60;99.90;;;;;;4983104;28;20101;-83
2021/12/10 05:51:36;;;;;;;24.83;17.70;;;2.60;99.90;;;;;;5001114;28;20048;-84
2021/12/10 05:54:04;;;;;;;30.67;17.83;;;2.60;99.90;;;;;;5003900;28;20044;-83
2021/12/10 05:56:30;;;;;;;25.88;17.63;;;2.60;99.90;;;;;;5000970;28;20062;-83
2021/12/10 05:58:56;;;;;;;31.75;17.45;;;2.60;99.90;;;;;;4974677;28;21051;-84
2021/12/10 06:01:24;;;;;;;25.73;17.25;;;2.60;99.90;;;;;;5026281;28;20563;-84
2021/12/10 06:03:53;;;;;;;24.50;16.95;;;2.60;99.90;;;;;;5000659;28;20130;-84
2021/12/10 06:06:23;;;;;;;24.20;16.15;;;2.50;99.90;;;;;;5002054;28;20151;-83
2021/12/10 06:08:50;;;;;;;25.83;16.92;;;2.50;99.90;;;;;;4994571;28;20424;-83
2021/12/10 06:11:17;;;;;;;23.42;16.67;;;2.40;99.90;;;;;;5001252;28;20067;-83
2021/12/10 06:13:47;;;;;;;24.58;17.33;;;2.50;99.90;;;;;;5005379;28;20548;-83
2021/12/10 06:16:14;;;;;;;25.92;17.05;;;2.40;99.90;;;;;;4984835;28;20265;-83
2021/12/10 06:18:40;;;;;;;24.83;16.63;;;2.40;99.90;;;;;;5006592;28;20400;-83
2021/12/10 06:21:06;;;;;;;27.55;17.70;;;2.40;99.90;;;;;;4982185;28;20043;-83
2021/12/10 06:23:33;;;;;;;26.50;16.92;;;2.40;99.90;;;;;;5002710;28;20055;-83
2021/12/10 06:25:59;;;;;;;24.35;16.33;;;2.50;99.90;;;;;;5002474;28;20121;-84
2021/12/10 06:28:26;;;;;;;24.65;16.77;;;2.40;99.90;;;;;;5001664;28;20048;-84
2021/12/10 06:30:53;;;;;;;24.95;16.67;;;2.40;99.90;;;;;;5003655;28;20062;-83
2021/12/10 06:33:25;;;;;;;23.63;16.30;;;2.40;99.90;;;;;;4998951;28;20369;-83
2021/12/10 06:35:52;;;;;;;24.23;15.43;;;2.40;99.90;;;;;;5003152;28;20465;-83
2021/12/10 06:38:19;;;;;;;24.80;16.35;;;2.40;99.90;;;;;;5000867;28;20356;-83
2021/12/10 06:40:45;;;;;;;26.30;16.10;;;2.30;99.90;;;;;;5001236;28;20055;-83
2021/12/10 06:43:13;;;;;;;25.15;16.23;;;2.30;99.90;;;;;;4984170;28;20101;-83
2021/12/10 06:45:39;;;;;;;22.38;15.60;;;2.30;99.90;;;;;;4980553;28;20061;-83
2021/12/10 06:48:07;;;;;;;25.20;15.18;;;2.20;99.90;;;;;;5006105;28;20419;-83
2021/12/10 06:50:41;;;;;;;22.75;15.05;;;2.20;99.90;;;;;;4994865;28;20527;-83
2021/12/10 06:53:07;;;;;;;23.73;15.43;;;2.20;99.90;;;;;;4998988;28;20048;-83
2021/12/10 06:55:33;;;;;;;24.60;14.85;;;2.20;99.90;;;;;;4973000;28;20875;-83
2021/12/10 06:58:00;;;;;;;23.13;15.25;;;2.20;99.90;;;;;;5009045;28;20040;-83
2021/12/10 07:00:28;;;;;;;21.45;14.35;;;2.20;99.90;;;;;;5001600;28;20760;-83
2021/12/10 07:02:54;;;;;;;22.77;14.90;;;2.00;99.90;;;;;;5002220;28;20789;-83
2021/12/10 07:05:20;;;;;;;23.15;15.52;;;2.10;99.90;;;;;;5012511;28;20096;-83
2021/12/10 07:07:46;;;;;;;28.10;15.35;;;2.20;99.90;;;;;;5005764;28;20032;-84
2021/12/10 07:10:14;;;;;;;30.35;18.02;;;2.20;99.90;;;;;;4991086;28;20055;-83
2021/12/10 07:12:41;;;;;;;31.55;18.40;;;2.20;99.90;;;;;;5008619;28;20055;-83
2021/12/10 07:15:11;;;;;;;22.52;14.80;;;2.30;99.90;;;;;;5003110;28;21128;-83
2021/12/10 07:17:44;;;;;;;24.58;13.68;;;2.30;99.90;;;;;;4985890;28;20573;-83
2021/12/10 07:20:11;;;;;;;23.42;13.55;;;2.30;99.90;;;;;;5006723;28;20039;-84
2021/12/10 07:22:37;;;;;;;21.00;13.07;;;2.20;99.90;;;;;;5012174;28;20055;-83
2021/12/10 07:25:05;;;;;;;24.17;12.80;;;2.30;99.90;;;;;;5034491;28;20134;-83
2021/12/10 07:27:31;;;;;;;22.77;13.80;;;2.40;99.90;;;;;;5023467;28;20439;-83
2021/12/10 07:29:57;;;;;;;24.50;13.32;;;2.40;99.90;;;;;;5021949;28;20100;-84
2021/12/10 07:32:23;;;;;;;24.83;12.68;;;2.40;99.90;;;;;;5014399;28;20708;-82
2021/12/10 07:34:49;;;;;;;20.08;12.60;;;2.40;99.90;;;;;;5038994;28;20489;-83
2021/12/10 07:37:15;;;;;;;22.77;12.75;;;2.30;99.90;;;;;;5011998;28;20040;-83
2021/12/10 07:39:41;;;;;;;22.90;12.43;;;2.40;99.90;;;;;;5004281;28;20520;-82
2021/12/10 07:42:08;;;;;;;19.92;12.55;;;2.30;99.90;;;;;;5024852;28;20367;-84
2021/12/10 07:44:35;;;;;;;20.52;12.18;;;2.30;99.90;;;;;;5001528;28;20047;-83
2021/12/10 07:47:03;;;;;;;22.45;12.10;;;2.30;99.90;;;;;;5007103;28;20081;-84
2021/12/10 07:49:32;;;;;;;21.92;11.93;;;2.20;99.90;;;;;;5022390;28;20059;-83
2021/12/10 07:51:58;;;;;;;20.38;11.60;;;2.30;99.90;;;;;;5001117;28;20050;-84
2021/12/10 07:54:25;;;;;;;20.50;12.15;;;2.30;99.90;;;;;;5019744;28;20451;-83
2021/12/10 07:56:51;;;;;;;20.00;11.90;;;2.20;99.90;;;;;;5001308;28;20395;-84
2021/12/10 07:59:17;;;;;;;21.42;12.05;;;2.30;99.90;;;;;;5022117;28;20040;-84
2021/12/10 08:01:44;;;;;;;19.40;12.80;;;2.30;99.90;;;;;;5002548;28;20070;-83
2021/12/10 08:04:10;;;;;;;19.23;11.48;;;2.30;99.90;;;;;;5001553;28;20047;-79
2021/12/10 08:06:38;;;;;;;20.52;12.07;;;2.30;99.90;;;;;;4990866;28;20224;-83
2021/12/10 08:09:06;;;;;;;21.55;11.57;;;2.40;99.90;;;;;;5003015;28;20056;-83
2021/12/10 08:11:32;;;;;;;20.85;11.23;;;2.30;99.90;;;;;;5003591;28;20169;-83
2021/12/10 08:13:58;;;;;;;19.52;12.13;;;2.40;99.90;;;;;;5005659;28;20036;-83
2021/12/10 08:16:25;;;;;;;19.90;11.75;;;2.30;99.90;;;;;;5008968;28;20055;-83
2021/12/10 08:18:52;;;;;;;20.00;12.18;;;2.40;99.90;;;;;;4992388;28;20938;-84
2021/12/10 08:21:19;;;;;;;17.17;11.65;;;2.40;99.90;;;;;;4988015;28;20883;-84
2021/12/10 08:23:44;;;;;;;24.45;12.15;;;2.30;99.90;;;;;;4987643;28;20818;-84
2021/12/10 08:26:12;;;;;;;22.35;11.80;;;2.40;99.90;;;;;;5010170;28;20071;-84
2021/12/10 08:28:40;;;;;;;17.58;11.48;;;2.50;99.90;;;;;;5004545;28;20126;-83
2021/12/10 08:31:06;;;;;;;17.60;10.93;;;2.60;99.90;;;;;;5005181;28;20484;-83
2021/12/10 08:33:32;;;;;;;18.30;11.85;;;2.70;99.90;;;;;;5005987;28;20051;-84
2021/12/10 08:36:02;;;;;;;23.83;11.77;;;2.70;99.90;;;;;;5004117;28;20108;-81
2021/12/10 08:38:29;;;;;;;20.48;11.20;;;2.90;99.90;;;;;;5009375;28;20094;-82
2021/12/10 08:41:03;;;;;;;17.55;10.98;;;3.10;99.90;;;;;;4984245;28;20411;-83
2021/12/10 08:43:30;;;;;;;18.00;11.88;;;3.00;99.90;;;;;;5000183;28;20055;-83
2021/12/10 08:45:57;;;;;;;17.02;11.35;;;3.10;99.90;;;;;;5027207;28;20828;-83
2021/12/10 08:48:25;;;;;;;20.77;12.30;;;3.20;99.90;;;;;;4988979;28;21020;-83
2021/12/10 08:50:52;;;;;;;17.42;11.80;;;3.20;99.90;;;;;;5006447;28;20047;-82
2021/12/10 08:53:18;;;;;;;20.10;11.13;;;3.30;99.90;;;;;;4999789;28;20051;-82
2021/12/10 08:55:48;;;;;;;17.48;11.35;;;3.20;99.90;;;;;;5004672;28;20082;-83
2021/12/10 08:58:14;;;;;;;18.23;11.07;;;3.20;99.90;;;;;;4993241;28;20055;-83
2021/12/10 09:00:49;;;;;;;15.85;10.52;;;3.30;99.90;;;;;;5000787;28;20098;-83
2021/12/10 09:03:15;;;;;;;14.93;9.75;;;3.30;99.90;;;;;;5003389;28;20109;-84
2021/12/10 09:05:41;;;;;;;18.58;10.30;;;3.30;99.90;;;;;;5005270;28;20048;-83
2021/12/10 09:08:07;;;;;;;16.40;10.77;;;3.40;99.90;;;;;;4980833;28;20039;-83
2021/12/10 09:10:38;;;;;;;16.38;10.20;;;3.50;99.90;;;;;;5001853;28;20051;-85
2021/12/10 09:13:12;;;;;;;15.98;9.88;;;3.50;99.90;;;;;;4993993;28;20407;-85
2021/12/10 09:15:40;;;;;;;21.48;10.57;;;3.60;99.90;;;;;;5008753;28;20051;-84
2021/12/10 09:18:08;;;;;;;17.38;10.20;;;3.70;99.90;;;;;;4994247;28;20181;-84
2021/12/10 09:20:39;;;;;;;15.23;10.48;;;3.70;99.90;;;;;;5012264;28;21019;-83
2021/12/10 09:23:06;;;;;;;14.45;9.02;;;3.70;99.90;;;;;;5012117;28;20457;-82
2021/12/10 09:25:32;;;;;;;16.77;9.75;;;3.70;99.90;;;;;;5021799;28;20130;-83
2021/12/10 09:27:58;;;;;;;15.80;9.43;;;3.80;99.90;;;;;;5001096;28;20078;-82
2021/12/10 09:30:28;;;;;;;16.08;9.80;;;3.90;99.90;;;;;;5001856;28;20516;-82
2021/12/10 09:32:54;;;;;;;14.40;9.73;;;3.90;99.90;;;;;;5022213;28;20143;-83
2021/12/10 09:35:22;;;;;;;13.82;9.00;;;4.00;99.90;;;;;;4983495;28;20335;-81
2021/12/10 09:37:49;;;;;;;14.60;8.63;;;4.00;99.90;;;;;;5012140;28;20043;-81
2021/12/10 09:40:19;;;;;;;13.77;8.63;;;4.10;99.90;;;;;;5003383;28;20073;-82
2021/12/10 09:42:46;;;;;;;13.50;8.23;;;4.10;99.90;;;;;;5011846;28;20051;-83
2021/12/10 09:45:16;;;;;;;13.02;8.30;;;4.10;99.90;;;;;;5021757;28;20436;-82
2021/12/10 09:47:42;;;;;;;14.73;9.25;;;4.20;99.90;;;;;;4991010;28;20054;-82
2021/12/10 09:50:10;;;;;;;15.65;8.80;;;4.20;99.90;;;;;;4988843;28;20597;-85
2021/12/10 09:52:36;;;;;;;13.73;8.82;;;4.30;99.90;;;;;;5011260;28;20900;-82
2021/12/10 09:55:05;;;;;;;13.98;8.20;;;4.40;99.90;;;;;;4988361;28;20486;-81
2021/12/10 09:57:33;;;;;;;14.55;8.63;;;4.40;99.90;;;;;;5006604;28;20062;-84
2021/12/10 10:00:03;;;;;;;11.75;7.90;;;4.60;99.90;;;;;;5008750;28;20043;-84
2021/12/10 10:02:32;;;;;;;12.70;7.68;;;4.60;99.90;;;;;;5003898;28;20624;-86
2021/12/10 10:04:58;;;;;;;17.15;7.90;;;4.60;99.90;;;;;;4990451;28;20484;-83
2021/12/10 10:07:28;;;;;;;13.32;7.35;;;4.60;99.90;;;;;;5005702;28;20221;-85
2021/12/10 10:10:05;;;;;;;12.35;7.05;;;4.60;99.90;;;;;;5010134;28;20137;-83
2021/12/10 10:12:36;;;;;;;15.18;7.20;;;4.70;99.90;;;;;;5006005;28;20060;-85
2021/12/10 10:15:08;;;;;;;12.07;6.90;;;4.70;99.90;;;;;;5005925;28;20051;-84
2021/12/10 10:17:35;;;;;;;11.45;7.22;;;4.70;99.90;;;;;;5006975;28;20210;-83
2021/12/10 10:20:04;;;;;;;13.23;6.85;;;4.80;99.90;;;;;;5007061;28;20524;-84
2021/12/10 10:22:30;;;;;;;14.82;7.70;;;4.70;99.90;;;;;;5006621;28;20154;-84
2021/12/10 10:24:57;;;;;;;13.18;7.90;;;4.70;99.90;;;;;;5005772;28;20043;-83
2021/12/10 10:27:31;;;;;;;13.48;7.55;;;4.80;99.90;;;;;;5009961;28;20184;-82
2021/12/10 10:30:04;;;;;;;13.65;7.20;;;4.80;99.90;;;;;;5004125;28;20232;-82
2021/12/10 10:32:32;;;;;;;14.23;7.45;;;4.90;99.90;;;;;;5005464;28;20058;-82
2021/12/10 10:35:01;;;;;;;14.48;7.53;;;4.90;99.90;;;;;;5002346;28;20508;-83
2021/12/10 10:37:32;;;;;;;12.25;7.03;;;4.90;99.90;;;;;;5006646;28;20224;-83
2021/12/10 10:39:59;;;;;;;14.63;6.97;;;5.00;99.90;;;;;;5011941;28;20043;-83
2021/12/10 10:42:27;;;;;;;12.40;6.63;;;5.10;99.90;;;;;;5005832;28;21030;-84
2021/12/10 10:44:56;;;;;;;11.77;6.43;;;5.00;99.90;;;;;;5003712;28;20568;-84
2021/12/10 10:47:23;;;;;;;11.75;6.22;;;5.00;99.90;;;;;;5001927;28;20062;-84
2021/12/10 10:50:11;;;;;;;10.95;6.40;;;5.10;99.90;;;;;;5004721;28;20048;-83
2021/12/10 10:52:40;;;;;;;12.07;6.35;;;5.10;99.90;;;;;;5008863;28;20059;-84
2021/12/10 10:55:11;;;;;;;12.07;6.03;;;5.20;99.90;;;;;;5005583;28;20079;-84
2021/12/10 10:57:48;;;;;;;14.25;6.70;;;5.30;99.90;;;;;;4985051;28;20971;-86
2021/12/10 11:01:01;;;;;;;11.95;5.53;;;5.30;99.90;;;;;;5011190;28;20094;-84
2021/12/10 11:03:37;;;;;;;11.55;5.90;;;5.40;99.90;;;;;;4991618;28;20407;-84
2021/12/10 11:06:06;;;;;;;10.70;5.60;;;5.50;99.90;;;;;;5013838;28;20051;-85
2021/12/10 11:08:42;;;;;;;10.88;5.40;;;5.50;99.90;;;;;;5025153;28;20298;-83
2021/12/10 11:11:10;;;;;;;10.82;5.15;;;5.60;99.90;;;;;;5010195;28;20375;-84
2021/12/10 11:13:37;;;;;;;11.40;5.15;;;5.60;99.90;;;;;;5006903;28;20437;-83
2021/12/10 11:16:10;;;;;;;11.43;4.63;;;5.70;99.90;;;;;;5003621;28;20043;-83
2021/12/10 11:18:55;;;;;;;9.27;4.45;;;5.50;99.90;;;;;;5003553;28;20055;-84
2021/12/10 11:21:40;;;;;;;9.30;4.75;;;5.60;99.90;;;;;;5005565;28;20101;-85
2021/12/10 11:24:09;;;;;;;9.55;4.53;;;5.60;99.90;;;;;;5006557;28;20376;-85
2021/12/10 11:26:49;;;;;;;10.50;4.60;;;5.70;99.90;;;;;;5007089;28;20044;-85
2021/12/10 11:29:35;;;;;;;9.90;4.85;;;5.70;99.90;;;;;;5003509;28;20429;-84
2021/12/10 11:32:09;;;;;;;12.18;4.90;;;5.80;99.90;;;;;;5008774;28;20049;-83
2021/12/10 11:34:53;;;;;;;11.77;4.50;;;5.80;99.90;;;;;;5000555;28;20043;-83
2021/12/10 11:37:49;;;;;;;10.90;4.40;;;5.80;99.90;;;;;;4985268;28;20494;-83
2021/12/10 11:40:35;;;;;;;12.48;4.30;;;5.80;99.90;;;;;;4986478;28;20051;-84
2021/12/10 11:49:01;;;;;;;11.48;4.38;;;6.00;99.90;;;;;;5008699;28;20055;-85
2021/12/10 11:51:29;;;;;;;11.40;4.15;;;5.90;99.90;;;;;;4986251;28;20052;-83
2021/12/10 11:54:03;;;;;;;10.05;4.28;;;5.80;99.90;;;;;;5016880;28;20048;-83
2021/12/10 11:56:40;;;;;;;10.98;4.03;;;5.80;99.90;;;;;;5025361;28;20055;-83
2021/12/10 11:59:23;;;;;;;11.98;4.57;;;5.90;99.90;;;;;;5009161;28;20039;-82
2021/12/10 12:02:09;;;;;;;9.77;4.23;;;6.10;99.90;;;;;;5002366;28;20946;-84
2021/12/10 12:04:49;;;;;;;8.57;3.92;;;6.20;99.90;;;;;;5002003;28;21100;-83
2021/12/10 12:07:19;;;;;;;10.43;3.97;;;6.00;99.90;;;;;;5007298;28;20060;-84
2021/12/10 12:09:58;;;;;;;7.90;3.78;;;6.20;99.90;;;;;;5005784;28;20524;-83
2021/12/10 12:12:50;;;;;;;9.88;3.65;;;6.10;99.90;;;;;;5002663;28;20136;-84
2021/12/10 12:15:27;;;;;;;10.50;4.07;;;6.20;99.90;;;;;;5005367;28;20139;-84
2021/12/10 12:18:05;;;;;;;11.57;4.60;;;6.10;99.90;;;;;;5011564;28;20054;-84
2021/12/10 12:20:47;;;;;;;10.45;4.15;;;6.20;99.90;;;;;;5013963;28;20623;-84
2021/12/10 12:26:15;;;;;;;9.55;3.70;;;6.20;99.90;;;;;;5004740;28;20861;-84
2021/12/10 12:29:13;;;;;;;12.20;4.28;;;6.40;99.90;;;;;;5006484;28;20112;-83
2021/12/10 12:31:46;;;;;;;8.88;4.35;;;6.50;99.90;;;;;;4983988;28;20789;-84
2021/12/10 12:34:23;;;;;;;;;;;6.50;99.90;;;;;;5008200;28;20048;-85
2021/12/10 12:36:52;;;;;;;10.65;4.25;;;6.50;99.90;;;;;;5008523;28;19927;-84
2021/12/10 12:39:36;;;;;;;8.90;3.40;;;6.60;99.90;;;;;;5008544;28;20054;-83
2021/12/10 12:42:17;;;;;;;10.90;3.60;;;6.30;99.90;;;;;;5024404;28;20044;-83
2021/12/10 12:44:44;;;;;;;10.85;3.97;;;6.30;99.90;;;;;;5008312;28;20943;-84
2021/12/10 12:47:16;;;;;;;9.90;4.20;;;6.40;99.90;;;;;;5011748;28;20440;-82
2021/12/10 12:49:48;;;;;;;13.85;7.47;;;6.40;99.90;;;;;;5018256;28;20779;-83
2021/12/10 12:52:21;;;;;;;15.77;7.40;;;6.20;99.90;;;;;;4999149;28;20113;-83
2021/12/10 12:55:21;;;;;;;11.27;5.30;;;6.20;99.90;;;;;;5003794;28;20527;-83
2021/12/10 12:58:11;;;;;;;10.23;4.85;;;6.20;99.90;;;;;;4999214;28;20883;-85
2021/12/10 13:00:43;;;;;;;12.27;4.30;;;6.30;99.90;;;;;;5013917;28;20051;-84
2021/12/10 13:03:29;;;;;;;10.32;4.38;;;6.20;99.90;;;;;;5016492;28;20106;-84
2021/12/10 13:05:57;;;;;;;10.27;4.70;;;6.20;99.90;;;;;;5012495;28;20131;-84
2021/12/10 13:08:28;;;;;;;9.85;4.90;;;6.20;99.90;;;;;;4993776;28;20043;-83
2021/12/10 13:11:18;;;;;;;10.40;4.53;;;6.20;99.90;;;;;;4990506;28;20063;-83